This is the latest recevied weather packets stored in our database for station/object K8GLX. If no packets are shown the sender has not sent any weather packets the latest 10 day(s).
| Time | Temp. | Humidity | Pressure | Rain* | Wind** | Luminosity | Snow |
|---|---|---|---|---|---|---|---|
| 1777405028 | 17.78° C | 72% | 1011.7 hPa | 0 mm | - | 643 W/m² | - |
| 1777404733 | 17.78° C | 72% | 1011.9 hPa | 0 mm | - | 650 W/m² | - |
| 1777404542 | 17.78° C | 71% | 1011.8 hPa | 0 mm | - | 684 W/m² | - |
| 1777404261 | 17.78° C | 71% | 1011.9 hPa | 0 mm | - | 697 W/m² | - |
| 1777403828 | 17.78° C | 70% | 1011.8 hPa | 0 mm | - | 685 W/m² | - |
| 1777403533 | 18.33° C | 70% | 1011.6 hPa | 0 mm | - | 712 W/m² | - |
| 1777403228 | 17.78° C | 71% | 1011.7 hPa | 0 mm | - | 475 W/m² | - |
| 1777403063 | 18.33° C | 70% | 1011.9 hPa | 0 mm | - | 874 W/m² | - |
| 1777402628 | 18.89° C | 68% | 1011.5 hPa | 0 mm | - | 309 W/m² | - |
| 1777402334 | 18.89° C | 68% | 1011.8 hPa | 0 mm | - | 787 W/m² | - |
| 1777402028 | 19.44° C | 67% | 1011.6 hPa | 0 mm | - | 788 W/m² | - |
| 1777401734 | 19.44° C | 67% | 1011.7 hPa | 0 mm | - | 808 W/m² | - |
| 1777401427 | 19.44° C | 67% | 1011.6 hPa | 0 mm | - | 809 W/m² | - |
| 1777401261 | 19.44° C | 70% | 1011.6 hPa | 0 mm | - | 244 W/m² | - |
| 1777400828 | 19.44° C | 72% | 1011.5 hPa | 0 mm | - | 293 W/m² | - |
| 1777400534 | 20.56° C | 68% | 1011.4 hPa | 0 mm | - | 302 W/m² | - |
| 1777400228 | 20.56° C | 66% | 1011.3 hPa | 0 mm | - | 220 W/m² | - |
| 1777399934 | 20.56° C | 67% | 1011.2 hPa | 0 mm | - | 294 W/m² | - |
| 1777399628 | 20.56° C | 67% | 1011.1 hPa | 0 mm | - | 258 W/m² | - |
| 1777399334 | 21.11° C | 66% | 1011 hPa | 0 mm | - | 152 W/m² | - |
| 1777399028 | 20.56° C | 66% | 1011 hPa | 0 mm | - | 444 W/m² | - |
| 1777398734 | 20.56° C | 65% | 1011 hPa | 0 mm | - | 216 W/m² | - |
| 1777398428 | 21.67° C | 63% | 1011 hPa | 0 mm | - | 279 W/m² | - |
| 1777398133 | 21.11° C | 64% | 1011.2 hPa | 0 mm | - | 340 W/m² | - |
| 1777397828 | 21.11° C | 65% | 1011.1 hPa | 0 mm | - | 815 W/m² | - |
* Rain latest hour (hover to see other rain measurements)
** Current wind speed in m/s (hover to see current wind gust speed)